createdAt,value
2017-07-11T00:02:18.217Z,99.90
2017-07-11T00:04:46.630Z,99.90
2017-07-11T00:07:15.805Z,99.90
2017-07-11T00:09:44.412Z,99.90
2017-07-11T00:12:12.799Z,99.40
2017-07-11T00:14:42.029Z,99.10
2017-07-11T00:17:10.466Z,99.10
2017-07-11T00:19:39.631Z,98.80
2017-07-11T00:22:08.049Z,98.80
2017-07-11T00:24:36.441Z,98.60
2017-07-11T00:27:04.943Z,98.30
2017-07-11T00:29:33.352Z,98.50
2017-07-11T00:32:01.743Z,98.20
2017-07-11T00:34:30.922Z,97.80
2017-07-11T00:36:59.311Z,97.80
2017-07-11T00:39:27.914Z,97.40
2017-07-11T00:41:57.076Z,96.70
2017-07-11T00:44:25.475Z,96.70
2017-07-11T00:46:53.895Z,96.30
2017-07-11T00:49:22.291Z,96.00
2017-07-11T00:51:50.940Z,95.30
2017-07-11T00:54:19.311Z,95.00
2017-07-11T00:56:48.487Z,94.90
2017-07-11T00:59:16.888Z,94.80
2017-07-11T01:01:46.045Z,94.50
2017-07-11T01:04:14.629Z,94.50
2017-07-11T01:06:43.040Z,94.50
2017-07-11T01:09:12.200Z,94.60
2017-07-11T01:11:40.599Z,94.60
2017-07-11T01:14:08.993Z,94.80
2017-07-11T01:16:38.510Z,95.30
2017-07-11T01:19:06.916Z,95.30
2017-07-11T01:21:35.317Z,95.80
2017-07-11T01:24:03.709Z,96.40
2017-07-11T01:26:32.103Z,96.50
2017-07-11T01:29:01.533Z,96.60
2017-07-11T01:31:29.914Z,96.70
2017-07-11T01:33:58.299Z,96.70
2017-07-11T01:36:34.918Z,96.80
2017-07-11T01:39:02.969Z,96.80
2017-07-11T01:41:31.417Z,96.90
2017-07-11T01:43:59.804Z,96.90
2017-07-11T01:46:28.194Z,96.90
2017-07-11T01:48:56.598Z,97.00
2017-07-11T01:51:24.630Z,97.10
2017-07-11T01:53:53.196Z,97.20
2017-07-11T01:56:21.570Z,97.20
2017-07-11T01:58:49.960Z,97.30
2017-07-11T02:01:18.022Z,97.30
2017-07-11T02:03:46.426Z,97.30
2017-07-11T02:06:14.858Z,97.50
2017-07-11T02:08:44.023Z,97.60
2017-07-11T02:11:12.431Z,97.60
2017-07-11T02:13:41.084Z,97.70
2017-07-11T02:16:09.461Z,97.70
2017-07-11T02:18:37.930Z,97.80
2017-07-11T02:21:06.365Z,97.90
2017-07-11T02:23:34.749Z,98.00
2017-07-11T02:26:03.140Z,98.00
2017-07-11T02:28:31.515Z,98.10
2017-07-11T02:30:59.916Z,98.10
2017-07-11T02:33:28.325Z,98.10
2017-07-11T02:35:56.721Z,98.20
2017-07-11T02:38:25.895Z,98.30
2017-07-11T02:40:54.281Z,98.30
2017-07-11T02:43:22.729Z,98.50
2017-07-11T02:45:51.135Z,98.50
2017-07-11T02:48:19.524Z,98.60
2017-07-11T02:50:48.695Z,98.70
2017-07-11T02:53:17.081Z,98.40
2017-07-11T02:55:45.571Z,98.40
2017-07-11T02:58:14.729Z,98.20
2017-07-11T03:00:43.120Z,98.30
2017-07-11T03:03:11.553Z,98.30
2017-07-11T03:05:39.930Z,98.30
2017-07-11T03:08:08.496Z,98.20
2017-07-11T03:10:37.650Z,98.30
2017-07-11T03:13:06.079Z,98.30
2017-07-11T03:15:35.234Z,98.10
2017-07-11T03:18:03.623Z,98.10
2017-07-11T03:20:32.254Z,98.10
2017-07-11T03:23:00.626Z,98.10
2017-07-11T03:25:29.005Z,98.10
2017-07-11T03:27:57.516Z,98.10
2017-07-11T03:30:25.904Z,98.00
2017-07-11T03:32:54.535Z,98.00
2017-07-11T03:35:23.687Z,98.00
2017-07-11T03:37:52.072Z,98.00
2017-07-11T03:40:20.471Z,98.10
2017-07-11T03:42:49.642Z,98.10
2017-07-11T03:45:18.979Z,98.10
2017-07-11T03:47:47.373Z,98.20
2017-07-11T03:50:15.758Z,98.20
2017-07-11T03:52:44.194Z,98.10
2017-07-11T03:55:12.590Z,98.10
2017-07-11T03:57:41.106Z,98.20
2017-07-11T04:00:09.500Z,98.10
2017-07-11T04:02:37.893Z,98.10
2017-07-11T04:05:06.311Z,97.90
2017-07-11T04:07:34.728Z,98.00
2017-07-11T04:10:03.478Z,98.10
2017-07-11T04:12:32.663Z,98.00
2017-07-11T04:15:01.053Z,98.00
2017-07-11T04:17:30.219Z,98.10
2017-07-11T04:19:58.606Z,98.10
2017-07-11T04:22:27.240Z,98.10
2017-07-11T04:24:55.630Z,98.00
2017-07-11T04:27:24.026Z,97.90
2017-07-11T04:29:52.426Z,97.70
2017-07-11T04:32:20.828Z,97.50
2017-07-11T04:34:50.217Z,97.20
2017-07-11T04:37:19.377Z,97.20
2017-07-11T04:39:47.770Z,97.20
2017-07-11T04:42:16.157Z,97.00
2017-07-11T04:44:44.530Z,97.20
2017-07-11T04:47:13.083Z,96.90
2017-07-11T04:49:41.477Z,96.90
2017-07-11T04:52:09.852Z,97.20
2017-07-11T04:54:38.254Z,97.20
2017-07-11T04:57:06.682Z,97.10
2017-07-11T04:59:35.333Z,96.90
2017-07-11T05:02:04.495Z,96.60
2017-07-11T05:04:32.889Z,96.60
2017-07-11T05:07:01.282Z,96.50
2017-07-11T05:09:30.450Z,96.20
2017-07-11T05:11:58.908Z,96.30
2017-07-11T05:14:27.299Z,96.00
2017-07-11T05:16:55.689Z,95.80
2017-07-11T05:19:24.081Z,95.50
2017-07-11T05:21:52.470Z,95.30
2017-07-11T05:24:21.877Z,95.50
2017-07-11T05:26:50.268Z,95.40
2017-07-11T05:29:18.654Z,95.00
2017-07-11T05:31:47.078Z,94.70
2017-07-11T05:34:15.467Z,94.70
2017-07-11T05:36:43.926Z,94.80
2017-07-11T05:39:12.337Z,94.80
2017-07-11T05:41:42.045Z,94.40
2017-07-11T05:44:11.201Z,94.10
2017-07-11T05:46:39.585Z,93.80
2017-07-11T05:49:08.205Z,93.80
2017-07-11T05:51:37.358Z,93.50
2017-07-11T05:54:05.749Z,93.50
2017-07-11T05:56:34.151Z,93.40
2017-07-11T05:59:02.528Z,93.30
2017-07-11T06:01:31.048Z,92.90
2017-07-11T06:03:59.441Z,92.90
2017-07-11T06:06:27.846Z,92.80
2017-07-11T06:08:56.263Z,92.70
2017-07-11T06:11:24.671Z,91.90
2017-07-11T06:13:53.234Z,91.60
2017-07-11T06:16:21.639Z,91.90
2017-07-11T06:18:50.276Z,91.50
2017-07-11T06:21:19.458Z,91.90
2017-07-11T06:23:47.663Z,91.80
2017-07-11T06:26:16.351Z,91.30
2017-07-11T06:28:44.746Z,91.40
2017-07-11T06:31:13.179Z,91.00
2017-07-11T06:33:41.586Z,90.80
2017-07-11T06:36:09.985Z,90.30
2017-07-11T06:38:38.812Z,90.80
2017-07-11T06:41:07.205Z,90.80
2017-07-11T06:43:36.386Z,89.70
2017-07-11T06:46:04.815Z,89.70
2017-07-11T06:48:33.210Z,88.80
2017-07-11T06:51:01.869Z,86.60
2017-07-11T06:53:30.254Z,85.70
2017-07-11T06:55:58.753Z,85.00
2017-07-11T06:58:27.167Z,85.00
2017-07-11T07:00:55.571Z,85.00
2017-07-11T07:03:24.777Z,85.30
2017-07-11T07:05:53.151Z,85.10
2017-07-11T07:08:22.300Z,86.30
2017-07-11T07:10:50.979Z,86.30
2017-07-11T07:13:19.377Z,86.40
2017-07-11T07:15:48.008Z,84.20
2017-07-11T07:18:16.407Z,85.10
2017-07-11T07:20:44.806Z,83.40
2017-07-11T07:23:13.214Z,83.30
2017-07-11T07:25:42.374Z,82.50
2017-07-11T07:28:10.817Z,82.50
2017-07-11T07:30:39.209Z,81.00
2017-07-11T07:33:07.609Z,82.30
2017-07-11T07:35:36.008Z,82.20
2017-07-11T07:38:04.552Z,81.50
2017-07-11T07:40:33.330Z,82.00
2017-07-11T07:43:01.722Z,82.60
2017-07-11T07:45:30.110Z,81.80
2017-07-11T07:47:58.515Z,83.00
2017-07-11T07:50:26.898Z,81.60
2017-07-11T07:52:55.296Z,83.50
2017-07-11T07:55:24.449Z,81.60
2017-07-11T07:57:52.894Z,81.60
2017-07-11T08:00:21.108Z,81.60
2017-07-11T08:02:49.514Z,82.80
2017-07-11T08:05:18.874Z,80.70
2017-07-11T08:07:47.266Z,80.70
2017-07-11T08:10:15.667Z,79.50
2017-07-11T08:12:44.848Z,81.10
2017-07-11T08:15:13.270Z,80.60
2017-07-11T08:17:41.949Z,81.10
2017-07-11T08:20:10.320Z,82.10
2017-07-11T08:22:38.736Z,81.70
2017-07-11T08:25:07.157Z,81.90
2017-07-11T08:27:35.543Z,82.30
2017-07-11T08:30:04.644Z,82.20
2017-07-11T08:32:33.065Z,82.10
2017-07-11T08:35:01.466Z,81.80
2017-07-11T08:37:29.890Z,81.90
2017-07-11T08:39:58.511Z,80.10
2017-07-11T08:42:27.243Z,80.30
2017-07-11T08:44:55.865Z,79.50
2017-07-11T08:47:24.246Z,79.10
2017-07-11T08:49:52.666Z,78.40
2017-07-11T08:52:21.070Z,76.50
2017-07-11T08:54:50.345Z,78.80
2017-07-11T08:57:18.753Z,78.80
2017-07-11T08:59:47.124Z,79.10
2017-07-11T09:02:15.536Z,80.60
2017-07-11T09:04:43.932Z,77.80
2017-07-11T09:07:12.575Z,76.50
2017-07-11T09:09:40.971Z,75.90
2017-07-11T09:12:09.374Z,75.70
2017-07-11T09:14:37.765Z,74.50
2017-07-11T09:17:06.153Z,74.40
2017-07-11T09:19:34.569Z,75.60
2017-07-11T09:22:02.947Z,75.80
2017-07-11T09:24:31.336Z,76.70
2017-07-11T09:26:59.725Z,74.00
2017-07-11T09:29:28.117Z,75.30
2017-07-11T09:31:56.739Z,76.30
2017-07-11T09:34:25.121Z,78.00
2017-07-11T09:36:54.273Z,79.40
2017-07-11T09:39:22.665Z,79.40
2017-07-11T09:41:51.065Z,78.80
2017-07-11T09:44:19.577Z,79.20
2017-07-11T09:46:47.964Z,78.10
2017-07-11T09:49:16.353Z,76.40
2017-07-11T09:51:44.753Z,76.10
2017-07-11T09:54:13.147Z,76.00
2017-07-11T09:56:41.716Z,74.90
2017-07-11T09:59:10.107Z,72.50
2017-07-11T10:01:38.510Z,72.40
2017-07-11T10:04:07.683Z,71.80
2017-07-11T10:06:36.067Z,71.60
2017-07-11T10:09:03.736Z,72.20
2017-07-11T10:11:32.113Z,71.60
2017-07-11T10:14:00.485Z,72.80
2017-07-11T10:16:29.655Z,71.70
2017-07-11T10:18:58.029Z,71.90
2017-07-11T10:21:26.600Z,70.60
2017-07-11T10:23:54.989Z,69.40
2017-07-11T10:26:23.380Z,69.70
2017-07-11T10:28:51.779Z,68.80
2017-07-11T10:31:20.180Z,68.20
2017-07-11T10:33:49.641Z,67.90
2017-07-11T10:36:18.046Z,67.60
2017-07-11T10:38:47.210Z,67.90
2017-07-11T10:41:15.630Z,67.80
2017-07-11T10:43:44.045Z,67.60
2017-07-11T10:46:12.798Z,67.50
2017-07-11T10:48:41.962Z,68.00
2017-07-11T10:51:10.361Z,67.70
2017-07-11T10:53:39.011Z,66.20
2017-07-11T10:56:07.393Z,66.90
2017-07-11T10:58:36.693Z,65.50
2017-07-11T11:01:05.114Z,64.40
2017-07-11T11:03:34.252Z,65.30
2017-07-11T11:06:02.651Z,65.10
2017-07-11T11:08:31.044Z,65.30
2017-07-11T11:10:59.560Z,65.50
2017-07-11T11:13:27.947Z,63.70
2017-07-11T11:15:56.342Z,65.10
2017-07-11T11:18:24.738Z,65.30
2017-07-11T11:20:53.106Z,66.00
2017-07-11T11:23:21.529Z,67.20
2017-07-11T11:25:49.951Z,69.40
2017-07-11T11:28:18.363Z,71.20
2017-07-11T11:30:46.757Z,70.00
2017-07-11T11:33:15.147Z,68.90
2017-07-11T11:35:44.645Z,68.70
2017-07-11T11:38:13.015Z,68.60
2017-07-11T11:40:42.182Z,65.90
2017-07-11T11:43:10.595Z,65.90
2017-07-11T11:45:39.746Z,66.30
2017-07-11T11:48:08.288Z,66.10
2017-07-11T11:50:37.331Z,64.90
2017-07-11T11:53:05.725Z,65.10
2017-07-11T11:55:34.144Z,64.30
2017-07-11T11:58:02.516Z,65.40
2017-07-11T12:00:31.013Z,66.20
2017-07-11T12:02:59.427Z,67.20
2017-07-11T12:05:27.829Z,65.10
2017-07-11T12:07:56.238Z,65.10
2017-07-11T12:10:24.643Z,67.90
2017-07-11T12:12:53.116Z,69.60
2017-07-11T12:15:21.525Z,67.00
2017-07-11T12:17:49.929Z,64.70
2017-07-11T12:20:19.098Z,62.10
2017-07-11T12:22:47.471Z,62.00
2017-07-11T12:25:15.905Z,61.70
2017-07-11T12:27:44.291Z,61.80
2017-07-11T12:30:12.669Z,62.40
2017-07-11T12:32:41.142Z,60.10
2017-07-11T12:35:09.644Z,60.60
2017-07-11T12:37:38.138Z,61.70
2017-07-11T12:40:06.528Z,62.60
2017-07-11T12:42:35.169Z,64.10
2017-07-11T12:45:03.553Z,62.20
2017-07-11T12:47:31.964Z,62.80
2017-07-11T12:50:00.590Z,62.40
2017-07-11T12:52:29.225Z,64.80
2017-07-11T12:54:57.614Z,62.70
2017-07-11T12:57:26.071Z,65.40
2017-07-11T12:59:54.491Z,64.00
2017-07-11T13:02:23.004Z,64.70
2017-07-11T13:04:51.404Z,63.00
2017-07-11T13:07:19.799Z,62.20
2017-07-11T13:09:48.189Z,64.70
2017-07-11T13:12:16.834Z,65.00
2017-07-11T13:14:45.252Z,64.60
2017-07-11T13:17:13.651Z,65.80
2017-07-11T13:19:42.828Z,64.90
2017-07-11T13:22:12.190Z,64.80
2017-07-11T13:24:40.579Z,65.20
2017-07-11T13:27:09.299Z,66.10
2017-07-11T13:29:37.683Z,66.50
2017-07-11T13:32:06.063Z,67.70
2017-07-11T13:34:34.306Z,67.80
2017-07-11T13:37:02.692Z,68.80
2017-07-11T13:39:31.091Z,68.10
2017-07-11T13:41:59.677Z,68.40
2017-07-11T13:44:28.070Z,67.90
2017-07-11T13:46:56.488Z,68.50
2017-07-11T13:49:24.895Z,70.00
2017-07-11T13:51:53.597Z,68.70
2017-07-11T13:54:21.971Z,68.20
2017-07-11T13:56:50.346Z,69.20
2017-07-11T13:59:18.760Z,68.90
2017-07-11T14:01:47.184Z,68.00
2017-07-11T14:04:15.583Z,67.00
2017-07-11T14:06:44.483Z,66.80
2017-07-11T14:09:13.630Z,67.40
2017-07-11T14:11:42.663Z,67.50
2017-07-11T14:14:11.047Z,68.10
2017-07-11T14:16:39.653Z,68.00
2017-07-11T14:19:08.065Z,69.50
2017-07-11T14:21:36.444Z,68.90
2017-07-11T14:24:04.833Z,68.50
2017-07-11T14:26:33.224Z,69.60
2017-07-11T14:29:01.677Z,70.30
2017-07-11T14:31:30.077Z,67.70
2017-07-11T14:33:58.461Z,67.70
2017-07-11T14:36:26.875Z,68.70
2017-07-11T14:38:55.277Z,67.30
2017-07-11T14:41:23.794Z,67.70
2017-07-11T14:43:52.189Z,67.30
2017-07-11T14:46:25.410Z,67.40
2017-07-11T14:48:53.831Z,68.40
2017-07-11T14:51:22.202Z,68.50
2017-07-11T14:53:50.607Z,68.40
2017-07-11T14:56:18.996Z,67.00
2017-07-11T14:58:47.609Z,67.40
2017-07-11T15:01:16.007Z,66.30
2017-07-11T15:03:44.398Z,65.00
2017-07-11T15:06:12.823Z,65.50
2017-07-11T15:08:41.231Z,66.30
2017-07-11T15:11:09.798Z,65.20
2017-07-11T15:13:38.983Z,66.40
2017-07-11T15:16:07.387Z,66.40
2017-07-11T15:18:35.776Z,67.20
2017-07-11T15:21:04.179Z,66.10
2017-07-11T15:23:33.454Z,67.60
2017-07-11T15:26:01.842Z,67.00
2017-07-11T15:28:30.311Z,67.30
2017-07-11T15:30:58.712Z,67.00
2017-07-11T15:33:27.116Z,68.90
2017-07-11T15:35:55.720Z,68.40
2017-07-11T15:38:24.874Z,66.80
2017-07-11T15:40:53.298Z,66.50
2017-07-11T15:43:21.708Z,67.30
2017-07-11T15:45:50.098Z,67.50
2017-07-11T15:48:18.939Z,66.00
2017-07-11T15:50:47.342Z,66.30
2017-07-11T15:53:15.747Z,66.50
2017-07-11T15:55:44.145Z,65.90
2017-07-11T15:58:12.526Z,65.50
2017-07-11T16:00:41.148Z,65.40
2017-07-11T16:03:09.538Z,64.60
2017-07-11T16:05:38.027Z,64.90
2017-07-11T16:08:06.442Z,65.70
2017-07-11T16:10:34.831Z,65.60
2017-07-11T16:13:03.239Z,65.90
2017-07-11T16:15:31.630Z,66.70
2017-07-11T16:18:00.030Z,66.30
2017-07-11T16:20:28.495Z,66.00
2017-07-11T16:22:56.882Z,67.50
2017-07-11T16:25:25.437Z,66.70
2017-07-11T16:27:53.830Z,66.50
2017-07-11T16:30:22.231Z,66.60
2017-07-11T16:32:50.618Z,66.70
2017-07-11T16:35:19.072Z,66.50
2017-07-11T16:37:47.490Z,67.20
2017-07-11T16:40:15.895Z,67.00
2017-07-11T16:42:44.288Z,68.10
2017-07-11T16:45:12.790Z,68.40
2017-07-11T16:47:41.187Z,68.40
2017-07-11T16:50:10.286Z,68.60
2017-07-11T16:52:38.678Z,68.50
2017-07-11T16:55:07.112Z,69.00
2017-07-11T16:57:35.576Z,68.90
2017-07-11T17:00:03.963Z,69.40
2017-07-11T17:02:32.374Z,69.50
2017-07-11T17:05:00.783Z,69.80
2017-07-11T17:07:29.183Z,70.70
2017-07-11T17:09:57.609Z,72.00
2017-07-11T17:12:26.012Z,76.90
2017-07-11T17:14:54.569Z,79.20
2017-07-11T17:17:22.987Z,80.20
2017-07-11T17:19:51.963Z,85.10
2017-07-11T17:22:20.374Z,85.00
2017-07-11T17:24:49.457Z,86.40
2017-07-11T17:27:18.627Z,89.00
2017-07-11T17:29:47.019Z,88.90
2017-07-11T17:32:16.196Z,90.30
2017-07-11T17:34:44.623Z,90.20
2017-07-11T17:37:13.022Z,90.40
2017-07-11T17:39:41.717Z,90.30
2017-07-11T17:42:10.188Z,90.60
2017-07-11T17:44:38.568Z,91.00
2017-07-11T17:47:06.972Z,91.10
2017-07-11T17:49:35.363Z,91.30
2017-07-11T17:52:03.809Z,91.20
2017-07-11T17:54:32.193Z,91.60
2017-07-11T17:57:00.572Z,91.30
2017-07-11T17:59:28.991Z,91.10
2017-07-11T18:01:58.155Z,90.70
2017-07-11T18:04:27.061Z,90.60
2017-07-11T18:06:55.452Z,90.10
2017-07-11T18:09:24.616Z,90.10
2017-07-11T18:11:53.029Z,90.10
2017-07-11T18:14:22.189Z,90.00
2017-07-11T18:16:50.930Z,90.00
2017-07-11T18:19:19.318Z,90.30
2017-07-11T18:21:47.709Z,90.40
2017-07-11T18:24:16.107Z,90.50
2017-07-11T18:26:44.651Z,90.40
2017-07-11T18:29:13.416Z,90.40
2017-07-11T18:31:41.875Z,90.50
2017-07-11T18:34:10.293Z,90.60
2017-07-11T18:36:38.743Z,90.80
2017-07-11T18:39:07.135Z,90.80
2017-07-11T18:41:36.502Z,90.60
2017-07-11T18:44:04.935Z,90.60
2017-07-11T18:46:33.372Z,90.70
2017-07-11T18:49:01.773Z,90.50
2017-07-11T18:51:30.952Z,90.10
2017-07-11T18:53:59.557Z,90.10
2017-07-11T18:56:27.978Z,90.00
2017-07-11T18:58:56.387Z,89.40
2017-07-11T19:01:25.606Z,89.80
2017-07-11T19:03:54.765Z,89.60
2017-07-11T19:06:24.219Z,89.50
2017-07-11T19:08:52.593Z,89.90
2017-07-11T19:11:21.013Z,90.10
2017-07-11T19:13:49.416Z,90.20
2017-07-11T19:16:17.819Z,90.30
2017-07-11T19:18:48.200Z,90.60
2017-07-11T19:21:17.476Z,90.60
2017-07-11T19:23:45.928Z,90.80
2017-07-11T19:26:15.102Z,91.20
2017-07-11T19:28:43.071Z,91.10
2017-07-11T19:31:13.377Z,91.50
2017-07-11T19:33:41.768Z,91.50
2017-07-11T19:36:10.156Z,91.30
2017-07-11T19:38:40.327Z,91.20
2017-07-11T19:41:08.733Z,91.30
2017-07-11T19:43:37.159Z,91.50
2017-07-11T19:46:05.672Z,91.60
2017-07-11T19:48:34.127Z,91.50
2017-07-11T19:51:02.595Z,91.50
2017-07-11T19:53:31.072Z,91.30
2017-07-11T19:56:00.624Z,91.10
2017-07-11T19:58:29.037Z,90.90
2017-07-11T20:00:57.507Z,90.70
2017-07-11T20:03:26.007Z,90.60
2017-07-11T20:05:56.032Z,90.50
2017-07-11T20:08:24.741Z,90.50
2017-07-11T20:10:53.355Z,90.40
2017-07-11T20:13:21.961Z,90.30
2017-07-11T20:15:50.501Z,90.10
2017-07-11T20:18:18.957Z,90.00
2017-07-11T20:20:47.627Z,89.80
2017-07-11T20:23:16.039Z,89.60
2017-07-11T20:25:44.451Z,89.10
2017-07-11T20:28:12.866Z,89.10
2017-07-11T20:30:41.264Z,88.90
2017-07-11T20:33:09.924Z,89.00
2017-07-11T20:35:39.178Z,89.00
2017-07-11T20:38:07.581Z,88.90
2017-07-11T20:40:35.971Z,89.10
2017-07-11T20:43:05.125Z,88.80
2017-07-11T20:45:33.552Z,88.80
2017-07-11T20:48:02.790Z,88.90
2017-07-11T20:50:31.177Z,88.90
2017-07-11T20:52:59.568Z,88.70
2017-07-11T20:55:27.950Z,89.20
2017-07-11T20:57:56.570Z,88.20
2017-07-11T21:00:25.727Z,87.80
2017-07-11T21:02:54.130Z,87.80
2017-07-11T21:05:22.517Z,88.10
2017-07-11T21:07:51.688Z,88.50
2017-07-11T21:10:20.883Z,88.50
2017-07-11T21:12:49.272Z,88.30
2017-07-11T21:15:17.664Z,88.60
2017-07-11T21:17:46.630Z,89.00
2017-07-11T21:20:15.007Z,89.70
2017-07-11T21:22:43.609Z,89.20
2017-07-11T21:25:12.778Z,89.20
2017-07-11T21:27:41.171Z,89.70
2017-07-11T21:30:09.562Z,89.70
2017-07-11T21:32:37.937Z,89.80
2017-07-11T21:35:07.252Z,89.80
2017-07-11T21:37:36.401Z,90.10
2017-07-11T21:40:04.796Z,90.10
2017-07-11T21:42:33.279Z,90.10
2017-07-11T21:45:01.658Z,90.10
2017-07-11T21:47:30.084Z,90.30
2017-07-11T21:49:58.474Z,90.30
2017-07-11T21:52:27.118Z,90.30
2017-07-11T21:54:56.272Z,90.60
2017-07-11T21:57:24.647Z,90.60
2017-07-11T21:59:53.746Z,90.80
2017-07-11T22:02:22.129Z,91.00
2017-07-11T22:04:50.505Z,91.10
2017-07-11T22:07:18.909Z,91.20
2017-07-11T22:09:47.284Z,91.50
2017-07-11T22:12:16.485Z,91.40
2017-07-11T22:14:44.884Z,91.70
2017-07-11T22:17:13.260Z,91.70
2017-07-11T22:19:41.916Z,91.60
2017-07-11T22:22:10.312Z,91.70
2017-07-11T22:24:38.820Z,91.70
2017-07-11T22:27:07.196Z,91.70
2017-07-11T22:29:35.690Z,91.60
2017-07-11T22:32:04.093Z,91.50
2017-07-11T22:34:32.485Z,91.70
2017-07-11T22:37:00.979Z,91.60
2017-07-11T22:39:29.351Z,91.40
2017-07-11T22:41:57.756Z,91.50
2017-07-11T22:44:26.910Z,91.50
2017-07-11T22:46:55.304Z,91.50
2017-07-11T22:49:23.927Z,91.40
2017-07-11T22:51:52.306Z,91.40
2017-07-11T22:54:20.709Z,91.20
2017-07-11T22:56:49.107Z,91.20
2017-07-11T22:59:17.498Z,91.10
2017-07-11T23:01:45.907Z,91.00
2017-07-11T23:04:14.297Z,91.10
2017-07-11T23:06:42.686Z,91.10
2017-07-11T23:09:11.094Z,90.90
2017-07-11T23:11:39.501Z,91.00
2017-07-11T23:14:08.919Z,90.80
2017-07-11T23:16:38.074Z,90.80
2017-07-11T23:19:06.447Z,90.80
2017-07-11T23:21:34.853Z,90.80
2017-07-11T23:24:04.020Z,90.70
2017-07-11T23:26:32.848Z,90.80
2017-07-11T23:29:02.010Z,90.70
2017-07-11T23:31:30.390Z,90.70
2017-07-11T23:33:58.791Z,90.50
2017-07-11T23:36:27.948Z,90.50
2017-07-11T23:38:56.640Z,90.50
2017-07-11T23:41:25.046Z,90.30
2017-07-11T23:43:54.222Z,90.10
2017-07-11T23:46:22.625Z,90.10
2017-07-11T23:48:51.780Z,90.10
2017-07-11T23:51:20.189Z,90.10
2017-07-11T23:53:48.564Z,89.80
2017-07-11T23:56:16.953Z,90.00
2017-07-11T23:58:46.124Z,90.30
